createdAt,value
2019-05-07T00:01:52.644Z,82.85
2019-05-07T00:04:22.560Z,83.77
2019-05-07T00:06:53.857Z,83.53
2019-05-07T00:09:23.966Z,82.17
2019-05-07T00:11:54.103Z,82.45
2019-05-07T00:14:25.837Z,82.94
2019-05-07T00:16:55.940Z,81.63
2019-05-07T00:19:26.033Z,82.14
2019-05-07T00:21:56.132Z,83.94
2019-05-07T00:24:26.227Z,84.28
2019-05-07T00:26:56.390Z,84.15
2019-05-07T00:29:26.590Z,83.71
2019-05-07T00:31:56.698Z,82.89
2019-05-07T00:34:32.948Z,83.08
2019-05-07T00:37:13.117Z,83.30
2019-05-07T00:40:02.743Z,81.95
2019-05-07T00:42:50.595Z,84.06
2019-05-07T00:45:27.000Z,84.40
2019-05-07T00:47:57.167Z,85.14
2019-05-07T00:50:33.120Z,83.70
2019-05-07T00:53:03.381Z,84.02
2019-05-07T00:55:33.458Z,84.04
2019-05-07T00:58:03.559Z,84.54
2019-05-07T01:00:33.630Z,86.81
2019-05-07T01:03:05.298Z,87.83
2019-05-07T01:05:35.366Z,87.64
2019-05-07T01:08:05.527Z,84.28
2019-05-07T01:10:35.612Z,83.36
2019-05-07T01:13:05.714Z,83.88
2019-05-07T01:15:35.870Z,83.40
2019-05-07T01:18:05.984Z,82.39
2019-05-07T01:20:36.050Z,84.14
2019-05-07T01:23:06.177Z,84.90
2019-05-07T01:25:36.100Z,84.29
2019-05-07T01:28:06.226Z,85.04
2019-05-07T01:30:36.310Z,85.76
2019-05-07T01:33:16.751Z,84.94
2019-05-07T01:36:05.936Z,83.36
2019-05-07T01:38:36.103Z,84.28
2019-05-07T01:41:06.244Z,83.84
2019-05-07T01:43:36.386Z,83.17
2019-05-07T01:46:06.558Z,83.99
2019-05-07T01:48:36.718Z,84.95
2019-05-07T01:51:06.860Z,85.41
2019-05-07T01:53:37.037Z,85.29
2019-05-07T01:56:07.279Z,84.76
2019-05-07T01:58:37.394Z,84.44
2019-05-07T02:01:07.534Z,84.30
2019-05-07T02:03:52.801Z,83.79
2019-05-07T02:06:32.777Z,84.51
2019-05-07T02:09:12.899Z,84.78
2019-05-07T02:11:44.836Z,83.99
2019-05-07T02:14:14.952Z,83.65
2019-05-07T02:16:45.077Z,84.95
2019-05-07T02:19:15.255Z,83.43
2019-05-07T02:21:45.440Z,84.23
2019-05-07T02:24:15.581Z,83.98
2019-05-07T02:26:45.743Z,84.02
2019-05-07T02:29:15.896Z,85.59
2019-05-07T02:31:47.088Z,87.14
2019-05-07T02:34:17.250Z,88.56
2019-05-07T02:36:47.374Z,86.58
2019-05-07T02:39:26.595Z,87.18
2019-05-07T02:41:56.701Z,87.81
2019-05-07T02:44:26.789Z,84.14
2019-05-07T02:47:18.009Z,83.26
2019-05-07T02:49:53.831Z,82.90
2019-05-07T02:52:44.002Z,82.95
2019-05-07T02:55:26.039Z,85.42
2019-05-07T02:57:56.138Z,85.71
2019-05-07T03:00:26.870Z,85.13
2019-05-07T03:02:56.982Z,83.85
2019-05-07T03:05:27.042Z,83.66
2019-05-07T03:07:57.222Z,84.42
2019-05-07T03:10:27.397Z,85.75
2019-05-07T03:12:58.376Z,84.63
2019-05-07T03:15:32.850Z,85.21
2019-05-07T03:18:03.412Z,85.33
2019-05-07T03:21:04.743Z,89.20
2019-05-07T03:23:42.931Z,86.98
2019-05-07T03:26:24.649Z,87.18
2019-05-07T03:28:56.744Z,85.23
2019-05-07T03:31:36.453Z,85.15
2019-05-07T03:34:16.194Z,84.77
2019-05-07T03:36:49.269Z,85.45
2019-05-07T03:39:19.549Z,84.56
2019-05-07T03:41:49.647Z,86.06
2019-05-07T03:44:44.928Z,85.70
2019-05-07T03:47:43.909Z,85.93
2019-05-07T03:50:15.059Z,85.74
2019-05-07T03:52:46.599Z,84.20
2019-05-07T03:55:16.703Z,84.76
2019-05-07T03:57:46.895Z,85.80
2019-05-07T04:00:17.433Z,84.76
2019-05-07T04:02:47.532Z,84.85
2019-05-07T04:05:17.641Z,83.56
2019-05-07T04:07:47.756Z,84.55
2019-05-07T04:10:17.877Z,84.51
2019-05-07T04:12:48.015Z,85.42
2019-05-07T04:15:19.521Z,84.32
2019-05-07T04:17:50.055Z,83.45
2019-05-07T04:20:20.236Z,82.85
2019-05-07T04:22:53.313Z,83.73
2019-05-07T04:25:37.964Z,84.14
2019-05-07T04:28:14.217Z,84.59
2019-05-07T04:30:44.333Z,84.63
2019-05-07T04:33:16.236Z,85.14
2019-05-07T04:36:14.465Z,84.54
2019-05-07T04:38:44.698Z,85.32
2019-05-07T04:41:14.863Z,85.17
2019-05-07T04:43:44.995Z,85.52
2019-05-07T04:46:15.150Z,85.06
2019-05-07T04:48:45.279Z,83.99
2019-05-07T04:51:18.453Z,85.98
2019-05-07T04:53:48.649Z,84.57
2019-05-07T04:56:19.890Z,84.25
2019-05-07T04:58:52.830Z,84.08
2019-05-07T05:01:23.757Z,84.39
2019-05-07T05:03:54.317Z,84.76
2019-05-07T05:06:24.523Z,84.46
2019-05-07T05:08:56.211Z,85.20
2019-05-07T05:11:28.838Z,84.74
2019-05-07T05:13:58.961Z,84.78
2019-05-07T05:16:29.212Z,84.28
2019-05-07T05:18:59.388Z,84.81
2019-05-07T05:21:38.652Z,84.62
2019-05-07T05:24:12.631Z,85.72
2019-05-07T05:26:42.913Z,85.26
2019-05-07T05:29:14.263Z,82.58
2019-05-07T05:31:44.462Z,83.42
2019-05-07T05:34:14.603Z,83.70
2019-05-07T05:36:44.765Z,84.28
2019-05-07T05:39:15.058Z,83.94
2019-05-07T05:41:46.913Z,84.77
2019-05-07T05:44:22.895Z,83.40
2019-05-07T05:46:53.158Z,83.77
2019-05-07T05:49:23.135Z,84.30
2019-05-07T05:52:02.006Z,85.00
2019-05-07T05:54:39.164Z,84.52
2019-05-07T05:57:23.131Z,83.99
2019-05-07T06:00:15.280Z,83.53
2019-05-07T06:03:03.511Z,83.26
2019-05-07T06:05:56.496Z,82.70
2019-05-07T06:08:54.840Z,81.40
2019-05-07T06:11:44.248Z,80.82
2019-05-07T06:14:22.082Z,79.72
2019-05-07T06:17:04.058Z,78.83
2019-05-07T06:19:39.472Z,78.25
2019-05-07T06:22:22.407Z,77.00
2019-05-07T06:24:58.553Z,75.48
2019-05-07T06:27:28.795Z,74.58
2019-05-07T06:29:58.981Z,70.87
2019-05-07T06:32:29.184Z,71.39
2019-05-07T06:34:59.338Z,70.29
2019-05-07T06:37:32.022Z,68.91
2019-05-07T06:40:12.793Z,67.86
2019-05-07T06:43:03.168Z,67.23
2019-05-07T06:45:37.530Z,66.99
2019-05-07T06:48:07.656Z,68.56
2019-05-07T06:50:37.854Z,68.54
2019-05-07T06:53:08.083Z,69.32
2019-05-07T06:55:38.199Z,67.72
2019-05-07T06:58:12.114Z,66.95
2019-05-07T07:00:54.389Z,67.72
2019-05-07T07:03:34.335Z,68.83
2019-05-07T07:06:24.135Z,66.88
2019-05-07T07:09:03.517Z,67.07
2019-05-07T07:11:44.257Z,67.13
2019-05-07T07:14:15.410Z,66.59
2019-05-07T07:16:45.624Z,66.78
2019-05-07T07:19:15.803Z,68.22
2019-05-07T07:21:47.148Z,66.92
2019-05-07T07:24:17.330Z,65.58
2019-05-07T07:26:47.481Z,65.82
2019-05-07T07:29:19.537Z,64.68
2019-05-07T07:31:58.652Z,64.99
2019-05-07T07:34:33.303Z,66.05
2019-05-07T07:37:12.549Z,64.79
2019-05-07T07:39:40.366Z,62.58
2019-05-07T07:42:12.407Z,63.53
2019-05-07T07:44:42.670Z,63.32
2019-05-07T07:47:13.071Z,65.09
2019-05-07T07:49:43.291Z,63.01
2019-05-07T07:52:13.447Z,62.43
2019-05-07T07:54:43.665Z,62.19
2019-05-07T07:57:32.493Z,63.16
2019-05-07T08:00:23.363Z,63.29
2019-05-07T08:03:02.134Z,62.60
2019-05-07T08:05:32.580Z,62.88
2019-05-07T08:08:02.816Z,64.37
2019-05-07T08:10:33.029Z,63.71
2019-05-07T08:13:03.371Z,62.98
2019-05-07T08:15:33.504Z,63.02
2019-05-07T08:18:03.800Z,63.10
2019-05-07T08:20:33.901Z,62.85
2019-05-07T08:23:05.552Z,62.76
2019-05-07T08:25:47.761Z,61.50
2019-05-07T08:28:19.181Z,61.18
2019-05-07T08:30:56.439Z,61.25
2019-05-07T08:33:32.270Z,61.53
2019-05-07T08:36:14.796Z,62.07
2019-05-07T08:38:52.998Z,62.25
2019-05-07T08:41:25.186Z,62.14
2019-05-07T08:44:09.104Z,60.67
2019-05-07T08:46:52.129Z,60.77
2019-05-07T08:49:35.683Z,62.13
2019-05-07T08:52:03.564Z,61.47
2019-05-07T08:54:33.674Z,60.45
2019-05-07T08:57:03.836Z,62.75
2019-05-07T08:59:35.322Z,62.97
2019-05-07T09:02:07.197Z,63.07
2019-05-07T09:04:37.362Z,62.83
2019-05-07T09:07:07.520Z,62.44
2019-05-07T09:09:37.719Z,62.47
2019-05-07T09:12:07.890Z,62.87
2019-05-07T09:14:38.063Z,62.08
2019-05-07T09:17:08.252Z,62.61
2019-05-07T09:19:50.032Z,63.29
2019-05-07T09:22:12.525Z,61.11
2019-05-07T09:24:42.594Z,62.71
2019-05-07T09:27:17.943Z,60.76
2019-05-07T09:29:54.799Z,61.66
2019-05-07T09:32:37.000Z,63.16
2019-05-07T09:35:09.878Z,62.53
2019-05-07T09:37:41.959Z,63.60
2019-05-07T09:40:12.690Z,63.78
2019-05-07T09:42:44.411Z,64.74
2019-05-07T09:45:15.562Z,64.00
2019-05-07T09:47:47.355Z,64.69
2019-05-07T09:50:17.870Z,65.73
2019-05-07T09:52:48.079Z,65.99
2019-05-07T09:55:19.897Z,65.48
2019-05-07T09:57:50.059Z,64.78
2019-05-07T10:00:22.616Z,64.54
2019-05-07T10:02:52.994Z,64.27
2019-05-07T10:05:23.387Z,63.34
2019-05-07T10:07:53.581Z,60.70
2019-05-07T10:10:23.836Z,60.36
2019-05-07T10:13:01.826Z,59.93
2019-05-07T10:15:33.153Z,60.87
2019-05-07T10:18:09.731Z,61.86
2019-05-07T10:20:42.130Z,61.04
2019-05-07T10:23:22.827Z,61.52
2019-05-07T10:25:54.417Z,60.80
2019-05-07T10:28:24.913Z,61.39
2019-05-07T10:30:56.608Z,60.96
2019-05-07T10:33:26.730Z,59.85
2019-05-07T10:35:57.765Z,59.07
2019-05-07T10:38:27.914Z,58.99
2019-05-07T10:40:58.180Z,58.58
2019-05-07T10:43:28.557Z,58.39
2019-05-07T10:46:12.941Z,60.04
2019-05-07T10:49:04.910Z,60.56
2019-05-07T10:51:35.208Z,60.60
2019-05-07T10:54:05.442Z,62.16
2019-05-07T10:56:52.478Z,67.55
2019-05-07T10:59:24.070Z,69.39
2019-05-07T11:02:02.338Z,73.24
2019-05-07T11:04:40.144Z,76.07
2019-05-07T11:07:04.516Z,76.19
2019-05-07T11:09:34.670Z,76.09
2019-05-07T11:12:04.907Z,76.20
2019-05-07T11:14:35.023Z,75.90
2019-05-07T11:17:24.139Z,74.39
2019-05-07T11:19:56.283Z,73.16
2019-05-07T11:22:26.385Z,74.54
2019-05-07T11:24:56.503Z,71.66
2019-05-07T11:27:26.617Z,72.44
2019-05-07T11:29:56.745Z,69.36
2019-05-07T11:32:27.927Z,69.16
2019-05-07T11:34:58.185Z,69.01
2019-05-07T11:37:28.296Z,68.33
2019-05-07T11:39:58.423Z,68.82
2019-05-07T11:43:05.942Z,67.38
2019-05-07T11:45:54.002Z,67.81
2019-05-07T11:48:23.513Z,66.49
2019-05-07T11:51:15.174Z,63.97
2019-05-07T11:54:02.225Z,64.37
2019-05-07T11:56:32.941Z,62.61
2019-05-07T11:59:03.126Z,63.12
2019-05-07T12:01:43.569Z,65.09
2019-05-07T12:04:05.769Z,66.22
2019-05-07T12:06:35.921Z,64.96
2019-05-07T12:09:08.139Z,63.08
2019-05-07T12:11:38.369Z,61.76
2019-05-07T12:14:08.605Z,62.47
2019-05-07T12:16:38.725Z,62.23
2019-05-07T12:19:08.851Z,63.70
2019-05-07T12:21:38.971Z,63.87
2019-05-07T12:24:09.078Z,62.88
2019-05-07T12:26:41.742Z,61.55
2019-05-07T12:29:12.018Z,60.57
2019-05-07T12:32:02.493Z,59.27
2019-05-07T12:34:36.231Z,58.44
2019-05-07T12:37:06.413Z,55.39
2019-05-07T12:39:36.534Z,55.80
2019-05-07T12:42:06.675Z,53.84
2019-05-07T12:44:36.899Z,56.37
2019-05-07T12:47:07.134Z,54.55
2019-05-07T12:49:37.269Z,56.36
2019-05-07T12:52:32.023Z,57.88
2019-05-07T12:55:14.073Z,57.62
2019-05-07T12:57:44.222Z,58.04
2019-05-07T13:00:32.388Z,61.58
2019-05-07T13:03:17.150Z,62.53
2019-05-07T13:05:47.249Z,65.92
2019-05-07T13:08:17.399Z,65.49
2019-05-07T13:10:48.489Z,63.92
2019-05-07T13:13:18.679Z,62.32
2019-05-07T13:15:48.786Z,60.04
2019-05-07T13:18:19.017Z,60.20
2019-05-07T13:20:49.193Z,54.86
2019-05-07T13:23:19.338Z,57.06
2019-05-07T13:25:49.456Z,56.39
2019-05-07T13:28:19.583Z,55.55
2019-05-07T13:30:49.777Z,57.54
2019-05-07T13:33:22.837Z,56.92
2019-05-07T13:35:53.125Z,57.09
2019-05-07T13:38:38.606Z,56.04
2019-05-07T13:41:27.676Z,57.24
2019-05-07T13:44:13.673Z,56.80
2019-05-07T13:46:44.966Z,55.52
2019-05-07T13:49:15.327Z,56.02
2019-05-07T13:51:45.898Z,54.42
2019-05-07T13:54:16.011Z,49.09
2019-05-07T13:56:46.201Z,47.70
2019-05-07T13:59:16.346Z,48.32
2019-05-07T14:02:05.718Z,48.28
2019-05-07T14:04:36.052Z,48.07
2019-05-07T14:07:06.169Z,47.12
2019-05-07T14:09:36.417Z,46.63
2019-05-07T14:12:06.548Z,46.70
2019-05-07T14:14:37.006Z,45.95
2019-05-07T14:17:07.226Z,45.29
2019-05-07T14:19:37.366Z,45.89
2019-05-07T14:22:15.237Z,45.48
2019-05-07T14:24:39.313Z,45.56
2019-05-07T14:27:09.454Z,44.51
2019-05-07T14:29:39.640Z,45.26
2019-05-07T14:32:31.651Z,45.96
2019-05-07T14:35:14.902Z,44.75
2019-05-07T14:37:52.378Z,45.57
2019-05-07T14:40:25.366Z,46.02
2019-05-07T14:43:03.573Z,44.29
2019-05-07T14:45:33.839Z,46.34
2019-05-07T14:48:03.975Z,44.76
2019-05-07T14:50:34.186Z,47.81
2019-05-07T14:53:04.479Z,46.64
2019-05-07T14:55:34.644Z,48.02
2019-05-07T14:58:04.928Z,48.19
2019-05-07T15:00:35.469Z,47.98
2019-05-07T15:03:05.972Z,46.20
2019-05-07T15:05:36.212Z,46.80
2019-05-07T15:08:11.079Z,45.82
2019-05-07T15:10:41.913Z,45.27
2019-05-07T15:13:12.771Z,46.02
2019-05-07T15:15:43.058Z,46.61
2019-05-07T15:18:24.172Z,46.51
2019-05-07T15:20:54.441Z,47.34
2019-05-07T15:23:31.994Z,48.41
2019-05-07T15:26:04.724Z,49.34
2019-05-07T15:28:36.494Z,48.12
2019-05-07T15:31:18.644Z,47.08
2019-05-07T15:33:49.048Z,48.40
2019-05-07T15:36:19.396Z,49.85
2019-05-07T15:38:49.728Z,49.06
2019-05-07T15:41:19.902Z,52.15
2019-05-07T15:43:52.033Z,51.57
2019-05-07T15:46:22.703Z,53.89
2019-05-07T15:48:53.585Z,54.08
2019-05-07T15:51:24.667Z,52.51
2019-05-07T15:53:56.743Z,50.93
2019-05-07T15:56:26.947Z,49.67
2019-05-07T15:58:57.059Z,48.40
2019-05-07T16:01:27.187Z,49.14
2019-05-07T16:03:58.481Z,47.73
2019-05-07T16:06:32.201Z,48.11
2019-05-07T16:09:05.152Z,47.10
2019-05-07T16:11:35.336Z,44.32
2019-05-07T16:14:16.071Z,44.54
2019-05-07T16:16:47.562Z,46.41
2019-05-07T16:19:22.981Z,44.88
2019-05-07T16:21:53.085Z,44.38
2019-05-07T16:24:23.203Z,44.38
2019-05-07T16:26:53.362Z,43.97
2019-05-07T16:29:23.604Z,45.15
2019-05-07T16:31:53.746Z,46.89
2019-05-07T16:34:25.458Z,43.86
2019-05-07T16:36:55.591Z,44.55
2019-05-07T16:39:27.320Z,45.03
2019-05-07T16:41:57.509Z,46.61
2019-05-07T16:44:28.063Z,44.96
2019-05-07T16:46:59.753Z,44.92
2019-05-07T16:49:31.796Z,44.71
2019-05-07T16:52:01.941Z,44.67
2019-05-07T16:54:32.106Z,42.30
2019-05-07T16:57:33.677Z,43.87
2019-05-07T17:00:04.967Z,45.22
2019-05-07T17:02:41.712Z,44.67
2019-05-07T17:05:13.519Z,42.57
2019-05-07T17:07:52.205Z,42.07
2019-05-07T17:10:22.477Z,41.55
2019-05-07T17:12:52.684Z,42.16
2019-05-07T17:15:22.981Z,41.20
2019-05-07T17:17:59.190Z,43.19
2019-05-07T17:20:29.439Z,37.75
2019-05-07T17:22:59.530Z,38.98
2019-05-07T17:25:38.649Z,38.70
2019-05-07T17:28:09.066Z,38.31
2019-05-07T17:30:42.157Z,37.72
2019-05-07T17:33:12.808Z,38.40
2019-05-07T17:35:45.865Z,35.86
2019-05-07T17:38:15.050Z,37.50
2019-05-07T17:40:45.181Z,37.90
2019-05-07T17:43:15.268Z,38.27
2019-05-07T17:45:45.438Z,38.69
2019-05-07T17:48:15.658Z,37.88
2019-05-07T17:51:07.631Z,39.33
2019-05-07T17:53:37.881Z,36.80
2019-05-07T17:56:08.025Z,36.06
2019-05-07T17:58:38.213Z,35.33
2019-05-07T18:01:23.348Z,39.04
2019-05-07T18:03:53.657Z,42.01
2019-05-07T18:06:23.849Z,43.12
2019-05-07T18:08:54.145Z,43.29
2019-05-07T18:11:24.449Z,45.52
2019-05-07T18:13:54.729Z,45.78
2019-05-07T18:16:33.371Z,46.18
2019-05-07T18:19:05.261Z,46.88
2019-05-07T18:21:38.489Z,47.28
2019-05-07T18:24:16.428Z,48.50
2019-05-07T18:26:43.637Z,50.21
2019-05-07T18:29:16.537Z,51.80
2019-05-07T18:31:50.211Z,51.99
2019-05-07T18:34:21.410Z,52.58
2019-05-07T18:36:53.087Z,52.80
2019-05-07T18:39:23.492Z,55.02
2019-05-07T18:41:53.791Z,55.15
2019-05-07T18:44:23.937Z,54.99
2019-05-07T18:46:54.015Z,55.49
2019-05-07T18:49:24.217Z,55.62
2019-05-07T18:51:54.401Z,57.45
2019-05-07T18:54:30.811Z,57.44
2019-05-07T18:56:57.703Z,57.60
2019-05-07T18:59:31.666Z,60.03
2019-05-07T19:02:02.282Z,60.37
2019-05-07T19:04:32.951Z,60.64
2019-05-07T19:07:04.081Z,60.85
2019-05-07T19:09:34.226Z,61.34
2019-05-07T19:12:05.185Z,60.13
2019-05-07T19:14:35.309Z,60.66
2019-05-07T19:17:05.382Z,61.45
2019-05-07T19:19:35.713Z,63.52
2019-05-07T19:22:05.922Z,63.59
2019-05-07T19:24:47.705Z,63.97
2019-05-07T19:27:13.209Z,64.01
2019-05-07T19:29:45.691Z,64.14
2019-05-07T19:32:15.360Z,64.78
2019-05-07T19:34:45.639Z,63.97
2019-05-07T19:37:15.749Z,64.18
2019-05-07T19:39:49.110Z,66.05
2019-05-07T19:42:19.385Z,66.39
2019-05-07T19:44:52.512Z,66.62
2019-05-07T19:47:23.427Z,66.68
2019-05-07T19:49:54.186Z,67.20
2019-05-07T19:52:24.643Z,66.86
2019-05-07T19:55:01.404Z,66.21
2019-05-07T19:57:44.673Z,66.39
2019-05-07T20:00:15.735Z,67.15
2019-05-07T20:02:52.704Z,66.77
2019-05-07T20:05:23.432Z,67.63
2019-05-07T20:07:58.674Z,68.25
2019-05-07T20:10:37.497Z,68.80
2019-05-07T20:13:07.619Z,68.45
2019-05-07T20:15:39.540Z,68.04
2019-05-07T20:18:09.661Z,68.09
2019-05-07T20:20:41.941Z,68.14
2019-05-07T20:23:12.156Z,68.61
2019-05-07T20:25:42.261Z,69.63
2019-05-07T20:28:12.878Z,69.79
2019-05-07T20:30:43.219Z,70.35
2019-05-07T20:33:13.496Z,69.87
2019-05-07T20:35:43.863Z,70.09
2019-05-07T20:38:15.100Z,71.07
2019-05-07T20:40:45.353Z,71.44
2019-05-07T20:43:15.516Z,70.70
2019-05-07T20:45:45.624Z,69.80
2019-05-07T20:48:15.779Z,70.45
2019-05-07T20:50:46.068Z,70.56
2019-05-07T20:53:21.830Z,71.37
2019-05-07T20:55:57.628Z,71.49
2019-05-07T20:58:27.847Z,72.73
2019-05-07T21:00:58.051Z,73.09
2019-05-07T21:03:28.233Z,73.32
2019-05-07T21:05:58.335Z,73.08
2019-05-07T21:08:28.587Z,71.80
2019-05-07T21:10:58.754Z,72.43
2019-05-07T21:13:32.438Z,72.78
2019-05-07T21:16:02.698Z,72.61
2019-05-07T21:18:32.901Z,73.64
2019-05-07T21:21:02.950Z,73.05
2019-05-07T21:23:33.054Z,72.93
2019-05-07T21:26:03.167Z,73.26
2019-05-07T21:28:33.307Z,74.34
2019-05-07T21:31:03.493Z,74.96
2019-05-07T21:33:33.638Z,73.27
2019-05-07T21:36:03.722Z,74.74
2019-05-07T21:38:33.883Z,74.66
2019-05-07T21:41:05.072Z,74.17
2019-05-07T21:43:35.192Z,74.59
2019-05-07T21:46:05.305Z,74.87
2019-05-07T21:48:35.424Z,74.74
2019-05-07T21:51:05.521Z,76.01
2019-05-07T21:53:42.904Z,75.65
2019-05-07T21:56:29.974Z,75.06
2019-05-07T21:59:05.260Z,75.64
2019-05-07T22:02:02.252Z,75.37
2019-05-07T22:04:32.743Z,76.02
2019-05-07T22:07:03.102Z,76.15
2019-05-07T22:09:33.185Z,75.68
2019-05-07T22:12:03.814Z,76.37
2019-05-07T22:14:34.119Z,76.26
2019-05-07T22:17:04.217Z,76.77
2019-05-07T22:19:34.333Z,77.23
2019-05-07T22:22:04.393Z,77.97
2019-05-07T22:24:34.527Z,78.29
2019-05-07T22:27:04.623Z,76.95
2019-05-07T22:29:34.961Z,76.52
2019-05-07T22:32:16.697Z,79.20
2019-05-07T22:35:08.883Z,79.40
2019-05-07T22:37:40.638Z,78.42
2019-05-07T22:40:13.016Z,77.65
2019-05-07T22:42:44.809Z,79.29
2019-05-07T22:45:16.560Z,77.35
2019-05-07T22:47:46.908Z,78.27
2019-05-07T22:50:17.125Z,78.84
2019-05-07T22:52:47.373Z,79.58
2019-05-07T22:55:17.600Z,79.76
2019-05-07T22:58:07.817Z,78.79
2019-05-07T23:00:44.219Z,79.96
2019-05-07T23:03:14.406Z,78.72
2019-05-07T23:05:44.878Z,79.57
2019-05-07T23:08:15.371Z,79.50
2019-05-07T23:10:45.589Z,81.20
2019-05-07T23:13:15.758Z,78.96
2019-05-07T23:15:45.899Z,79.20
2019-05-07T23:18:17.153Z,81.17
2019-05-07T23:20:47.297Z,80.68
2019-05-07T23:23:17.411Z,80.28
2019-05-07T23:25:47.450Z,82.27
2019-05-07T23:28:17.600Z,82.17
2019-05-07T23:30:47.656Z,79.92
2019-05-07T23:33:17.797Z,82.02
2019-05-07T23:35:47.893Z,81.83
2019-05-07T23:38:18.020Z,81.35
2019-05-07T23:41:16.139Z,81.52
2019-05-07T23:44:05.440Z,81.65
2019-05-07T23:46:35.616Z,82.59
2019-05-07T23:49:05.804Z,81.74
2019-05-07T23:51:35.988Z,82.73
2019-05-07T23:54:06.146Z,81.00
2019-05-07T23:56:36.330Z,82.56
2019-05-07T23:59:06.546Z,82.43
